createdAt,value
2019-04-16T00:00:17.897Z,11.07
2019-04-16T00:02:51.191Z,10.87
2019-04-16T00:05:27.435Z,10.87
2019-04-16T00:07:58.708Z,10.00
2019-04-16T00:10:31.838Z,10.13
2019-04-16T00:13:04.782Z,9.33
2019-04-16T00:15:33.634Z,10.70
2019-04-16T00:18:02.509Z,9.97
2019-04-16T00:20:36.882Z,10.67
2019-04-16T00:23:11.360Z,11.00
2019-04-16T00:25:40.334Z,11.53
2019-04-16T00:28:09.190Z,11.00
2019-04-16T00:30:37.993Z,10.33
2019-04-16T00:33:07.584Z,11.10
2019-04-16T00:35:37.222Z,10.60
2019-04-16T00:38:07.762Z,11.27
2019-04-16T00:40:36.693Z,10.50
2019-04-16T00:43:05.865Z,10.53
2019-04-16T00:45:34.782Z,10.40
2019-04-16T00:48:03.990Z,11.67
2019-04-16T00:50:32.836Z,11.50
2019-04-16T00:53:07.810Z,12.10
2019-04-16T00:55:34.068Z,12.70
2019-04-16T00:58:02.957Z,12.93
2019-04-16T01:00:31.830Z,12.73
2019-04-16T01:03:01.639Z,11.87
2019-04-16T01:05:35.080Z,13.20
2019-04-16T01:08:01.150Z,13.23
2019-04-16T01:10:29.978Z,12.10
2019-04-16T01:12:58.760Z,11.67
2019-04-16T01:15:29.181Z,12.90
2019-04-16T01:17:57.828Z,11.40
2019-04-16T01:20:26.705Z,10.97
2019-04-16T01:22:55.510Z,12.33
2019-04-16T01:25:24.306Z,12.90
2019-04-16T01:28:01.155Z,12.80
2019-04-16T01:30:43.468Z,12.80
2019-04-16T01:33:14.680Z,12.87
2019-04-16T01:35:51.722Z,13.13
2019-04-16T01:38:27.622Z,13.27
2019-04-16T01:40:55.523Z,13.33
2019-04-16T01:43:25.784Z,12.77
2019-04-16T01:45:54.582Z,12.37
2019-04-16T01:48:23.388Z,13.73
2019-04-16T01:50:52.249Z,13.30
2019-04-16T01:53:21.748Z,12.40
2019-04-16T01:55:50.553Z,13.27
2019-04-16T01:58:19.298Z,13.83
2019-04-16T02:00:48.060Z,13.57
2019-04-16T02:03:17.760Z,13.80
2019-04-16T02:05:47.314Z,13.63
2019-04-16T02:08:16.167Z,13.43
2019-04-16T02:10:44.969Z,14.10
2019-04-16T02:13:14.997Z,12.13
2019-04-16T02:15:44.443Z,13.00
2019-04-16T02:18:12.941Z,13.03
2019-04-16T02:20:41.720Z,13.43
2019-04-16T02:23:10.524Z,12.70
2019-04-16T02:25:39.406Z,12.53
2019-04-16T02:28:08.183Z,14.13
2019-04-16T02:30:39.013Z,13.00
2019-04-16T02:33:07.770Z,13.83
2019-04-16T02:35:36.692Z,12.40
2019-04-16T02:38:10.501Z,12.60
2019-04-16T02:40:35.796Z,13.43
2019-04-16T02:43:06.993Z,12.70
2019-04-16T02:45:35.151Z,11.83
2019-04-16T02:48:03.944Z,10.83
2019-04-16T02:50:43.240Z,12.13
2019-04-16T02:53:29.790Z,11.20
2019-04-16T02:56:18.987Z,11.43
2019-04-16T02:58:48.422Z,10.97
2019-04-16T03:01:37.451Z,12.10
2019-04-16T03:04:08.218Z,10.77
2019-04-16T03:06:37.203Z,11.97
2019-04-16T03:09:09.863Z,13.43
2019-04-16T03:11:40.768Z,12.33
2019-04-16T03:14:09.669Z,13.83
2019-04-16T03:16:40.207Z,11.97
2019-04-16T03:19:26.824Z,12.20
2019-04-16T03:21:55.911Z,13.40
2019-04-16T03:24:26.113Z,11.97
2019-04-16T03:26:54.997Z,12.50
2019-04-16T03:29:23.852Z,13.10
2019-04-16T03:31:57.646Z,12.23
2019-04-16T03:34:23.386Z,12.87
2019-04-16T03:36:52.451Z,12.90
2019-04-16T03:39:21.223Z,12.77
2019-04-16T03:41:49.716Z,12.80
2019-04-16T03:44:18.595Z,12.97
2019-04-16T03:46:47.743Z,12.90
2019-04-16T03:49:16.648Z,12.27
2019-04-16T03:51:45.511Z,12.23
2019-04-16T03:54:14.289Z,12.53
2019-04-16T03:56:42.774Z,12.73
2019-04-16T03:59:12.153Z,13.73
2019-04-16T04:01:45.556Z,12.30
2019-04-16T04:04:12.019Z,11.03
2019-04-16T04:06:40.805Z,12.90
2019-04-16T04:09:09.599Z,12.80
2019-04-16T04:11:40.887Z,11.87
2019-04-16T04:14:08.917Z,12.63
2019-04-16T04:16:37.742Z,12.33
2019-04-16T04:19:06.554Z,12.33
2019-04-16T04:21:35.284Z,13.57
2019-04-16T04:24:04.253Z,12.90
2019-04-16T04:26:32.832Z,13.87
2019-04-16T04:29:01.350Z,13.37
2019-04-16T04:31:32.444Z,13.00
2019-04-16T04:34:00.389Z,12.27
2019-04-16T04:36:29.229Z,12.70
2019-04-16T04:38:57.754Z,12.73
2019-04-16T04:41:26.553Z,13.10
2019-04-16T04:44:10.738Z,13.43
2019-04-16T04:46:51.054Z,12.83
2019-04-16T04:49:22.064Z,14.00
2019-04-16T04:52:49.522Z,22.20
2019-04-16T04:54:33.647Z,50.13
2019-04-16T04:57:03.871Z,43.10
2019-04-16T04:59:36.890Z,21.10
2019-04-16T05:14:03.200Z,13.57
2019-04-16T05:16:27.982Z,19.87
2019-04-16T05:18:56.885Z,16.03
2019-04-16T05:21:25.916Z,16.00
2019-04-16T05:23:57.410Z,12.60
2019-04-16T05:26:26.605Z,13.13
2019-04-16T05:29:28.247Z,13.93
2019-04-16T05:34:17.735Z,12.33
2019-04-16T05:35:12.100Z,15.17
2019-04-16T05:37:41.040Z,24.30
2019-04-16T05:40:10.898Z,25.73
2019-04-16T05:43:41.958Z,21.90
2019-04-16T05:46:26.129Z,19.23
2019-04-16T05:48:54.918Z,15.20
2019-04-16T05:51:23.941Z,16.40
2019-04-16T05:54:03.082Z,26.33
2019-04-16T05:56:33.456Z,42.63
2019-04-16T05:59:02.563Z,14.33
2019-04-16T06:01:33.596Z,12.73
2019-04-16T06:04:05.480Z,14.67
2019-04-16T06:06:49.254Z,11.67
2019-04-16T06:09:18.115Z,10.93
2019-04-16T06:11:47.006Z,14.13
2019-04-16T06:14:25.520Z,14.57
2019-04-16T06:17:10.637Z,16.40
2019-04-16T06:19:46.829Z,16.43
2019-04-16T06:25:40.948Z,11.53
2019-04-16T06:28:29.100Z,11.77
2019-04-16T06:31:14.077Z,12.23
2019-04-16T06:34:16.072Z,12.03
2019-04-16T06:36:31.054Z,12.75
2019-04-16T06:39:16.427Z,11.88
2019-04-16T06:41:48.568Z,12.23
2019-04-16T06:44:19.184Z,12.03
2019-04-16T06:47:10.831Z,12.50
2019-04-16T06:49:50.968Z,12.05
2019-04-16T06:52:37.875Z,12.10
2019-04-16T06:55:11.975Z,11.60
2019-04-16T06:57:44.716Z,12.80
2019-04-16T07:00:15.190Z,12.13
2019-04-16T07:06:37.382Z,13.57
2019-04-16T07:15:13.401Z,14.47
2019-04-16T07:17:52.805Z,13.37
2019-04-16T07:20:21.773Z,13.73
2019-04-16T07:22:52.724Z,13.03
2019-04-16T07:29:03.622Z,13.97
2019-04-16T07:31:52.312Z,12.97
2019-04-16T07:34:32.313Z,12.63
2019-04-16T07:37:05.284Z,13.57
2019-04-16T07:39:51.822Z,13.10
2019-04-16T07:42:22.455Z,13.50
2019-04-16T07:45:13.065Z,13.87
2019-04-16T07:54:12.716Z,14.20
2019-04-16T07:56:42.867Z,15.07
2019-04-16T07:59:11.561Z,13.70
2019-04-16T08:01:40.093Z,13.17
2019-04-16T08:04:08.784Z,14.00
2019-04-16T08:06:37.225Z,13.00
2019-04-16T08:09:08.112Z,14.80
2019-04-16T08:11:36.761Z,13.03
2019-04-16T08:14:08.936Z,12.90
2019-04-16T08:16:46.545Z,13.43
2019-04-16T08:19:06.561Z,14.20
2019-04-16T08:21:35.415Z,13.77
2019-04-16T08:24:09.201Z,13.00
2019-04-16T08:26:37.793Z,14.07
2019-04-16T08:29:06.685Z,13.37
2019-04-16T08:31:37.169Z,13.20
2019-04-16T08:34:05.951Z,14.17
2019-04-16T08:36:35.138Z,13.33
2019-04-16T08:39:06.473Z,18.33
2019-04-16T08:41:35.944Z,12.73
2019-04-16T08:44:04.859Z,14.73
2019-04-16T08:46:33.416Z,14.17
2019-04-16T08:49:02.585Z,14.00
2019-04-16T08:51:34.359Z,13.27
2019-04-16T08:54:01.401Z,14.03
2019-04-16T08:56:30.278Z,13.03
2019-04-16T08:59:01.314Z,12.47
2019-04-16T09:01:31.340Z,13.43
2019-04-16T09:04:02.727Z,13.83
2019-04-16T09:06:30.415Z,13.30
2019-04-16T09:09:12.408Z,13.47
2019-04-16T09:11:35.344Z,13.10
2019-04-16T09:14:06.183Z,14.50
2019-04-16T09:16:39.442Z,13.77
2019-04-16T09:19:09.965Z,13.17
2019-04-16T09:21:43.299Z,13.17
2019-04-16T09:24:27.203Z,12.77
2019-04-16T09:27:15.292Z,12.73
2019-04-16T09:29:54.241Z,12.30
2019-04-16T09:32:28.197Z,12.40
2019-04-16T09:35:18.414Z,12.60
2019-04-16T09:38:02.687Z,12.03
2019-04-16T09:40:35.823Z,13.33
2019-04-16T09:43:16.718Z,12.97
2019-04-16T09:45:37.289Z,13.33
2019-04-16T09:48:06.791Z,12.37
2019-04-16T09:50:35.348Z,12.47
2019-04-16T09:53:04.180Z,11.77
2019-04-16T09:55:33.043Z,13.10
2019-04-16T09:58:06.240Z,12.15
2019-04-16T10:00:38.190Z,13.00
2019-04-16T10:03:11.024Z,11.90
2019-04-16T10:05:39.866Z,11.13
2019-04-16T10:08:09.639Z,13.73
2019-04-16T10:10:38.689Z,12.53
2019-04-16T10:13:07.690Z,11.93
2019-04-16T10:15:36.658Z,11.97
2019-04-16T10:18:05.610Z,11.33
2019-04-16T10:20:34.407Z,12.30
2019-04-16T10:23:04.917Z,12.00
2019-04-16T10:25:33.889Z,13.00
2019-04-16T10:28:04.954Z,11.87
2019-04-16T10:30:36.271Z,13.07
2019-04-16T10:33:05.275Z,13.23
2019-04-16T10:35:34.241Z,12.47
2019-04-16T10:38:04.843Z,11.20
2019-04-16T10:40:35.151Z,12.87
2019-04-16T10:43:05.857Z,12.17
2019-04-16T10:45:42.149Z,12.40
2019-04-16T10:48:48.042Z,12.98
2019-04-16T11:07:11.216Z,12.20
2019-04-16T11:13:24.683Z,11.27
2019-04-16T11:19:32.198Z,12.05
2019-04-16T11:22:04.108Z,11.22
2019-04-16T11:24:31.449Z,11.70
2019-04-16T11:26:59.878Z,12.07
2019-04-16T11:29:28.574Z,11.18
2019-04-16T11:31:57.442Z,11.70
2019-04-16T11:34:26.205Z,11.22
2019-04-16T11:36:58.191Z,11.20
2019-04-16T11:39:25.326Z,11.18
2019-04-16T11:41:53.832Z,10.63
2019-04-16T11:44:22.560Z,12.63
2019-04-16T11:46:51.380Z,12.40
2019-04-16T11:49:21.382Z,10.75
2019-04-16T11:51:50.179Z,11.38
2019-04-16T11:54:18.740Z,11.10
2019-04-16T11:56:47.176Z,11.38
2019-04-16T11:59:15.857Z,10.78
2019-04-16T12:01:48.704Z,11.43
2019-04-16T12:04:19.074Z,10.18
2019-04-16T12:06:49.183Z,9.33
2019-04-16T12:09:25.146Z,11.68
2019-04-16T12:11:58.267Z,10.90
2019-04-16T12:14:46.736Z,11.83
2019-04-16T12:17:17.069Z,10.35
2019-04-16T12:19:47.575Z,10.25
2019-04-16T12:22:26.979Z,10.23
2019-04-16T12:25:03.174Z,10.78
2019-04-16T12:27:36.522Z,10.40
2019-04-16T12:30:12.865Z,11.05
2019-04-16T12:32:45.863Z,10.00
2019-04-16T12:35:34.739Z,10.28
2019-04-16T12:38:09.180Z,9.95
2019-04-16T12:40:42.338Z,10.55
2019-04-16T12:43:15.751Z,9.50
2019-04-16T12:46:02.528Z,9.48
2019-04-16T12:48:50.572Z,9.65
2019-04-16T12:51:21.016Z,9.40
2019-04-16T12:53:54.238Z,9.70
2019-04-16T12:56:41.274Z,9.73
2019-04-16T12:59:11.732Z,9.93
2019-04-16T13:01:44.753Z,10.82
2019-04-16T13:04:14.834Z,9.80
2019-04-16T13:06:44.887Z,10.90
2019-04-16T13:09:15.047Z,10.48
2019-04-16T13:11:45.585Z,10.35
2019-04-16T13:14:31.679Z,9.50
2019-04-16T13:17:02.014Z,9.60
2019-04-16T13:19:32.359Z,10.20
2019-04-16T13:22:01.202Z,10.35
2019-04-16T13:24:33.966Z,10.35
2019-04-16T13:27:10.000Z,9.65
2019-04-16T13:29:38.679Z,9.65
2019-04-16T13:32:07.548Z,10.53
2019-04-16T13:34:36.337Z,8.78
2019-04-16T13:37:05.194Z,9.68
2019-04-16T13:39:52.219Z,10.80
2019-04-16T13:42:20.946Z,9.23
2019-04-16T13:44:51.383Z,8.73
2019-04-16T13:47:20.104Z,7.97
2019-04-16T13:50:03.433Z,7.87
2019-04-16T13:52:32.281Z,9.90
2019-04-16T13:55:10.110Z,8.78
2019-04-16T13:57:43.323Z,8.70
2019-04-16T14:00:28.769Z,8.23
2019-04-16T14:02:59.123Z,8.13
2019-04-16T14:05:27.812Z,8.48
2019-04-16T14:07:56.504Z,8.50
2019-04-16T14:10:25.207Z,8.60
2019-04-16T14:12:53.624Z,8.78
2019-04-16T14:15:31.838Z,8.58
2019-04-16T14:17:59.106Z,7.72
2019-04-16T14:20:24.678Z,7.80
2019-04-16T14:22:54.288Z,9.15
2019-04-16T14:25:24.968Z,8.65
2019-04-16T14:27:55.607Z,8.35
2019-04-16T14:30:25.903Z,8.13
2019-04-16T14:32:54.723Z,9.18
2019-04-16T14:35:33.424Z,8.45
2019-04-16T14:37:58.160Z,9.23
2019-04-16T14:40:27.044Z,8.83
2019-04-16T14:42:57.712Z,8.65
2019-04-16T14:45:28.398Z,8.80
2019-04-16T14:47:57.758Z,9.53
2019-04-16T14:50:26.659Z,8.33
2019-04-16T14:52:55.243Z,8.13
2019-04-16T14:55:42.239Z,8.30
2019-04-16T14:58:16.181Z,8.78
2019-04-16T15:00:54.412Z,7.92
2019-04-16T15:03:27.265Z,7.53
2019-04-16T15:06:03.860Z,8.68
2019-04-16T15:08:49.142Z,8.05
2019-04-16T15:11:19.634Z,7.85
2019-04-16T15:13:50.050Z,10.20
2019-04-16T15:16:22.160Z,8.08
2019-04-16T15:19:10.113Z,9.05
2019-04-16T15:21:56.060Z,7.45
2019-04-16T15:24:27.584Z,7.33
2019-04-16T15:26:58.048Z,8.93
2019-04-16T15:29:31.219Z,8.23
2019-04-16T15:32:05.919Z,7.92
2019-04-16T15:34:41.941Z,8.30
2019-04-16T15:37:13.681Z,8.75
2019-04-16T15:39:49.844Z,8.75
2019-04-16T15:42:20.188Z,7.67
2019-04-16T15:44:56.163Z,7.35
2019-04-16T15:47:31.789Z,9.13
2019-04-16T15:50:00.464Z,9.10
2019-04-16T15:52:46.500Z,8.33
2019-04-16T15:55:19.808Z,9.15
2019-04-16T15:57:53.076Z,9.90
2019-04-16T16:00:32.487Z,9.98
2019-04-16T16:06:25.244Z,10.55
2019-04-16T16:09:03.786Z,9.63
2019-04-16T16:11:33.599Z,8.93
2019-04-16T16:14:02.481Z,8.88
2019-04-16T16:16:41.735Z,8.38
2019-04-16T16:19:01.787Z,8.25
2019-04-16T16:21:30.327Z,8.73
2019-04-16T16:23:59.137Z,9.70
2019-04-16T16:26:27.961Z,8.75
2019-04-16T16:28:56.725Z,8.37
2019-04-16T16:31:25.474Z,8.53
2019-04-16T16:33:54.084Z,7.95
2019-04-16T16:36:22.811Z,8.17
2019-04-16T16:38:51.497Z,7.60
2019-04-16T16:41:20.303Z,7.00
2019-04-16T16:43:49.109Z,7.28
2019-04-16T16:46:21.972Z,7.83
2019-04-16T16:48:52.627Z,6.40
2019-04-16T16:51:23.071Z,7.15
2019-04-16T16:54:01.890Z,7.93
2019-04-16T16:56:46.948Z,7.55
2019-04-16T16:59:35.569Z,7.33
2019-04-16T17:02:20.861Z,8.30
2019-04-16T17:04:52.973Z,9.27
2019-04-16T17:07:21.859Z,7.50
2019-04-16T17:09:50.490Z,6.60
2019-04-16T17:12:19.115Z,6.23
2019-04-16T17:14:48.003Z,6.63
2019-04-16T17:17:16.965Z,6.00
2019-04-16T17:19:50.496Z,6.63
2019-04-16T17:22:18.177Z,9.17
2019-04-16T17:24:49.704Z,10.00
2019-04-16T17:27:18.696Z,10.57
2019-04-16T17:29:49.729Z,11.50
2019-04-16T17:32:18.102Z,11.30
2019-04-16T17:34:46.929Z,11.37
2019-04-16T17:37:15.830Z,11.50
2019-04-16T17:39:49.000Z,13.07
2019-04-16T17:42:21.929Z,11.67
2019-04-16T17:45:10.168Z,11.33
2019-04-16T17:47:57.424Z,11.40
2019-04-16T17:50:39.299Z,12.30
2019-04-16T17:53:24.635Z,13.10
2019-04-16T17:56:06.756Z,12.73
2019-04-16T17:58:37.189Z,12.23
2019-04-16T18:01:16.541Z,12.70
2019-04-16T18:04:01.857Z,12.10
2019-04-16T18:06:34.811Z,13.20
2019-04-16T18:09:18.710Z,11.63
2019-04-16T18:12:03.696Z,12.83
2019-04-16T18:14:50.350Z,12.63
2019-04-16T18:17:21.033Z,13.10
2019-04-16T18:19:54.609Z,12.63
2019-04-16T18:22:41.925Z,12.47
2019-04-16T18:25:23.375Z,13.13
2019-04-16T18:28:04.248Z,13.00
2019-04-16T18:30:41.034Z,11.53
2019-04-16T18:33:23.233Z,12.70
2019-04-16T18:35:53.666Z,12.20
2019-04-16T18:38:36.129Z,12.70
2019-04-16T18:41:09.346Z,12.70
2019-04-16T18:43:39.791Z,13.03
2019-04-16T18:46:30.081Z,12.10
2019-04-16T18:48:59.737Z,12.47
2019-04-16T18:51:32.935Z,11.57
2019-04-16T18:53:59.082Z,12.73
2019-04-16T18:56:27.958Z,12.33
2019-04-16T18:58:56.801Z,11.47
2019-04-16T19:01:29.682Z,11.63
2019-04-16T19:03:57.953Z,11.40
2019-04-16T19:06:26.552Z,11.90
2019-04-16T19:08:55.537Z,11.47
2019-04-16T19:11:24.377Z,13.03
2019-04-16T19:13:53.690Z,11.93
2019-04-16T19:16:22.522Z,11.17
2019-04-16T19:18:51.335Z,10.67
2019-04-16T19:21:19.889Z,11.87
2019-04-16T19:23:48.727Z,10.37
2019-04-16T19:26:17.274Z,9.93
2019-04-16T19:28:46.599Z,10.17
2019-04-16T19:31:15.466Z,10.33
2019-04-16T19:33:44.098Z,9.13
2019-04-16T19:36:13.110Z,10.13
2019-04-16T19:38:41.970Z,10.03
2019-04-16T19:41:10.854Z,10.33
2019-04-16T19:43:39.660Z,11.37
2019-04-16T19:46:08.408Z,9.90
2019-04-16T19:48:37.142Z,9.70
2019-04-16T19:51:07.229Z,9.10
2019-04-16T19:53:36.337Z,9.70
2019-04-16T19:56:05.161Z,9.40
2019-04-16T19:58:33.600Z,10.03
2019-04-16T20:01:02.171Z,10.63
2019-04-16T20:03:31.342Z,10.83
2019-04-16T20:06:00.139Z,10.47
2019-04-16T20:08:34.372Z,10.57
2019-04-16T20:10:59.073Z,9.97
2019-04-16T20:13:28.944Z,9.93
2019-04-16T20:15:59.987Z,8.93
2019-04-16T20:18:49.978Z,9.43
2019-04-16T20:21:05.022Z,9.37
2019-04-16T20:23:33.814Z,9.77
2019-04-16T20:26:02.677Z,9.70
2019-04-16T20:28:31.483Z,9.87
2019-04-16T20:31:03.237Z,11.13
2019-04-16T20:33:30.683Z,9.13
2019-04-16T20:35:59.429Z,9.57
2019-04-16T20:38:29.375Z,9.03
2019-04-16T20:40:58.611Z,10.50
2019-04-16T20:43:27.368Z,11.30
2019-04-16T20:45:56.100Z,9.90
2019-04-16T20:48:24.892Z,10.43
2019-04-16T20:50:58.173Z,8.73
2019-04-16T20:53:24.117Z,9.63
2019-04-16T20:55:52.846Z,9.97
2019-04-16T20:58:21.366Z,9.70
2019-04-16T21:00:51.729Z,9.30
2019-04-16T21:03:22.740Z,10.13
2019-04-16T21:05:57.887Z,8.93
2019-04-16T21:08:24.156Z,9.93
2019-04-16T21:10:51.548Z,9.10
2019-04-16T21:13:20.307Z,9.27
2019-04-16T21:15:49.038Z,9.00
2019-04-16T21:18:17.768Z,9.33
2019-04-16T21:20:50.807Z,9.43
2019-04-16T21:23:17.023Z,9.53
2019-04-16T21:25:45.926Z,8.87
2019-04-16T21:28:23.080Z,9.70
2019-04-16T21:30:53.452Z,11.03
2019-04-16T21:33:24.016Z,12.73
2019-04-16T21:35:54.167Z,12.37
2019-04-16T21:38:27.418Z,11.23
2019-04-16T21:40:57.288Z,10.60
2019-04-16T21:43:26.571Z,9.67
2019-04-16T21:45:55.384Z,9.97
2019-04-16T21:48:27.092Z,11.40
2019-04-16T21:50:55.393Z,12.43
2019-04-16T21:53:24.634Z,11.73
2019-04-16T21:55:54.373Z,12.60
2019-04-16T21:58:23.211Z,13.63
2019-04-16T22:00:54.153Z,13.33
2019-04-16T22:03:24.525Z,13.00
2019-04-16T22:05:53.392Z,13.13
2019-04-16T22:08:22.180Z,13.43
2019-04-16T22:10:50.944Z,14.63
2019-04-16T22:13:20.148Z,15.47
2019-04-16T22:15:48.689Z,15.90
2019-04-16T22:18:17.999Z,14.33
2019-04-16T22:20:46.791Z,15.33
2019-04-16T22:23:19.023Z,15.13
2019-04-16T22:25:45.965Z,15.10
2019-04-16T22:28:14.819Z,15.67
2019-04-16T22:30:43.603Z,15.73
2019-04-16T22:33:12.327Z,16.40
2019-04-16T22:35:42.058Z,16.17
2019-04-16T22:38:14.304Z,14.70
2019-04-16T22:40:45.372Z,15.40
2019-04-16T22:43:15.462Z,16.10
2019-04-16T22:45:52.082Z,15.77
2019-04-16T22:48:19.044Z,14.93
2019-04-16T22:50:47.838Z,14.60
2019-04-16T22:53:17.268Z,15.77
2019-04-16T22:55:46.698Z,15.53
2019-04-16T22:58:24.967Z,14.57
2019-04-16T23:00:55.698Z,13.43
2019-04-16T23:03:24.424Z,14.13
2019-04-16T23:05:53.253Z,12.73
2019-04-16T23:08:22.040Z,12.73
2019-04-16T23:10:52.066Z,12.70
2019-04-16T23:13:20.973Z,12.00
2019-04-16T23:15:49.805Z,12.90
2019-04-16T23:18:18.381Z,13.60
2019-04-16T23:20:47.167Z,13.60
2019-04-16T23:23:18.052Z,12.50
2019-04-16T23:25:46.095Z,12.87
2019-04-16T23:28:14.837Z,12.87
2019-04-16T23:30:43.601Z,12.97
2019-04-16T23:33:12.349Z,13.20
2019-04-16T23:35:44.313Z,12.73
2019-04-16T23:38:12.068Z,11.70
2019-04-16T23:40:43.922Z,12.27
2019-04-16T23:43:25.011Z,11.97
2019-04-16T23:46:11.589Z,12.47
2019-04-16T23:48:47.728Z,12.50
2019-04-16T23:51:22.266Z,12.03
2019-04-16T23:54:01.577Z,12.53
2019-04-16T23:56:34.652Z,12.10
2019-04-16T23:59:11.026Z,12.63
